createdAt,value
2018-06-10T00:00:53.969Z,22.60
2018-06-10T00:04:54.544Z,22.40
2018-06-10T00:08:48.816Z,22.40
2018-06-10T00:12:43.286Z,22.40
2018-06-10T00:16:37.683Z,22.50
2018-06-10T00:20:32.277Z,22.30
2018-06-10T00:24:27.044Z,22.20
2018-06-10T00:28:26.490Z,22.10
2018-06-10T00:32:20.697Z,22.00
2018-06-10T00:36:14.761Z,22.00
2018-06-10T00:40:08.766Z,22.00
2018-06-10T00:44:03.464Z,22.00
2018-06-10T00:47:57.457Z,22.00
2018-06-10T00:51:51.667Z,21.90
2018-06-10T00:55:45.839Z,21.90
2018-06-10T00:59:39.850Z,22.00
2018-06-10T01:03:33.900Z,22.10
2018-06-10T01:07:28.103Z,22.20
2018-06-10T01:11:22.180Z,22.10
2018-06-10T01:15:16.204Z,21.80
2018-06-10T01:19:10.369Z,21.50
2018-06-10T01:23:03.842Z,21.10
2018-06-10T01:26:57.783Z,20.50
2018-06-10T01:30:51.971Z,20.20
2018-06-10T01:34:46.186Z,20.10
2018-06-10T01:38:40.395Z,19.80
2018-06-10T01:42:35.040Z,19.70
2018-06-10T01:46:32.986Z,19.60
2018-06-10T01:50:35.250Z,19.60
2018-06-10T01:54:28.873Z,19.60
2018-06-10T01:58:22.917Z,19.70
2018-06-10T02:02:16.975Z,20.00
2018-06-10T02:06:11.538Z,19.90
2018-06-10T02:10:05.657Z,19.70
2018-06-10T02:13:59.881Z,19.90
2018-06-10T02:17:53.970Z,20.10
2018-06-10T02:21:47.692Z,19.90
2018-06-10T02:25:41.702Z,19.60
2018-06-10T02:29:35.791Z,19.50
2018-06-10T02:33:30.591Z,19.50
2018-06-10T02:37:24.664Z,19.50
2018-06-10T02:41:18.679Z,19.90
2018-06-10T02:45:12.672Z,19.90
2018-06-10T02:49:07.459Z,19.80
2018-06-10T02:53:01.712Z,19.80
2018-06-10T02:56:55.698Z,19.70
2018-06-10T03:00:49.693Z,19.80
2018-06-10T03:04:43.811Z,19.90
2018-06-10T03:08:41.436Z,19.90
2018-06-10T03:12:37.684Z,19.90
2018-06-10T03:16:31.708Z,19.80
2018-06-10T03:20:25.215Z,19.90
2018-06-10T03:24:19.298Z,20.00
2018-06-10T03:28:14.172Z,19.90
2018-06-10T03:32:08.304Z,20.10
2018-06-10T03:36:02.488Z,20.00
2018-06-10T03:39:56.831Z,20.10
2018-06-10T03:43:50.785Z,20.00
2018-06-10T03:47:44.846Z,20.10
2018-06-10T03:51:38.991Z,20.10
2018-06-10T03:59:51.144Z,20.10
2018-06-10T04:03:46.624Z,20.10
2018-06-10T04:07:40.838Z,20.10
2018-06-10T04:11:35.009Z,20.00
2018-06-10T04:15:28.956Z,20.00
2018-06-10T04:19:22.947Z,20.00
2018-06-10T04:23:16.452Z,19.90
2018-06-10T04:27:11.167Z,19.90
2018-06-10T04:31:05.681Z,19.90
2018-06-10T04:34:59.647Z,19.90
2018-06-10T04:38:53.804Z,19.90
2018-06-10T04:42:48.374Z,20.00
2018-06-10T04:46:42.558Z,20.20
2018-06-10T04:50:37.710Z,20.30
2018-06-10T04:54:31.674Z,20.30
2018-06-10T04:58:29.666Z,20.40
2018-06-10T05:02:26.006Z,20.40
2018-06-10T05:06:20.068Z,20.40
2018-06-10T05:10:14.243Z,20.40
2018-06-10T05:14:08.660Z,20.40
2018-06-10T05:18:02.763Z,20.50
2018-06-10T05:21:56.318Z,20.50
2018-06-10T05:25:50.510Z,20.50
2018-06-10T05:29:44.551Z,20.50
2018-06-10T05:33:38.879Z,20.50
2018-06-10T05:37:33.034Z,20.50
2018-06-10T05:41:28.078Z,20.50
2018-06-10T05:45:22.179Z,20.50
2018-06-10T05:49:16.242Z,20.50
2018-06-10T05:53:10.313Z,20.60
2018-06-10T05:57:04.484Z,20.60
2018-06-10T06:00:58.757Z,20.70
2018-06-10T06:04:53.159Z,20.80
2018-06-10T06:08:48.249Z,20.80
2018-06-10T06:16:36.953Z,21.00
2018-06-10T06:20:30.838Z,21.40
2018-06-10T06:24:24.910Z,22.00
2018-06-10T06:28:18.959Z,22.40
2018-06-10T06:32:13.956Z,22.80
2018-06-10T06:36:08.806Z,22.90
2018-06-10T06:40:03.303Z,23.00
2018-06-10T06:44:01.140Z,22.90
2018-06-10T06:47:55.527Z,22.60
2018-06-10T06:55:46.307Z,23.20
2018-06-10T06:59:41.321Z,23.60
2018-06-10T07:03:35.604Z,23.80
2018-06-10T07:07:30.011Z,24.00
2018-06-10T07:11:24.471Z,24.40
2018-06-10T07:15:19.348Z,24.40
2018-06-10T07:19:13.657Z,24.30
2018-06-10T07:23:08.109Z,24.00
2018-06-10T07:27:02.710Z,23.80
2018-06-10T07:30:56.938Z,23.30
2018-06-10T07:34:51.755Z,22.80
2018-06-10T07:38:47.268Z,22.40
2018-06-10T07:42:41.656Z,22.30
2018-06-10T07:46:36.339Z,22.30
2018-06-10T07:50:31.047Z,22.40
2018-06-10T07:54:27.431Z,22.50
2018-06-10T07:58:22.786Z,22.50
2018-06-10T08:02:19.316Z,22.60
2018-06-10T08:06:14.768Z,22.60
2018-06-10T08:10:11.381Z,22.70
2018-06-10T08:14:05.667Z,22.90
2018-06-10T08:17:59.931Z,23.20
2018-06-10T08:21:53.983Z,23.60
2018-06-10T08:25:48.465Z,23.80
2018-06-10T08:29:42.720Z,24.00
2018-06-10T08:33:36.232Z,24.30
2018-06-10T08:37:29.543Z,24.60
2018-06-10T08:41:23.562Z,24.00
2018-06-10T08:45:17.787Z,24.10
2018-06-10T08:49:11.790Z,24.20
2018-06-10T08:53:05.909Z,24.20
2018-06-10T08:57:00.497Z,24.60
2018-06-10T09:00:55.709Z,24.70
2018-06-10T09:04:50.031Z,24.90
2018-06-10T09:08:44.967Z,25.30
2018-06-10T09:12:39.094Z,25.70
2018-06-10T09:16:33.943Z,25.30
2018-06-10T09:20:27.439Z,25.20
2018-06-10T09:24:21.682Z,25.30
2018-06-10T09:28:15.922Z,25.10
2018-06-10T09:36:03.865Z,25.70
2018-06-10T09:39:57.834Z,25.60
2018-06-10T09:43:53.009Z,25.90
2018-06-10T09:47:47.061Z,26.10
2018-06-10T09:51:41.284Z,26.60
2018-06-10T10:03:23.196Z,26.40
2018-06-10T10:07:17.328Z,25.90
2018-06-10T10:11:11.478Z,25.80
2018-06-10T10:15:05.552Z,26.50
2018-06-10T10:18:59.560Z,26.80
2018-06-10T10:26:46.626Z,26.30
2018-06-10T10:30:40.680Z,25.80
2018-06-10T10:34:35.090Z,26.30
2018-06-10T10:38:29.085Z,26.30
2018-06-10T10:42:23.135Z,26.40
2018-06-10T10:46:17.304Z,26.80
2018-06-10T10:50:11.426Z,27.20
2018-06-10T10:54:05.573Z,26.90
2018-06-10T10:58:00.730Z,26.60
2018-06-10T11:01:55.263Z,25.90
2018-06-10T11:05:49.376Z,26.30
2018-06-10T11:09:44.647Z,27.30
2018-06-10T11:13:39.377Z,27.00
2018-06-10T11:17:34.534Z,27.40
2018-06-10T11:21:28.009Z,27.40
2018-06-10T11:25:22.150Z,26.80
2018-06-10T11:29:16.335Z,27.00
2018-06-10T11:33:10.488Z,27.40
2018-06-10T11:37:05.847Z,27.70
2018-06-10T11:41:03.815Z,28.00
2018-06-10T11:44:57.997Z,28.10
2018-06-10T11:52:48.092Z,26.50
2018-06-10T11:56:42.814Z,27.00
2018-06-10T12:00:37.003Z,27.50
2018-06-10T12:04:30.984Z,27.70
2018-06-10T12:08:25.012Z,27.30
2018-06-10T12:12:19.087Z,26.90
2018-06-10T12:16:13.129Z,27.00
2018-06-10T12:20:08.903Z,26.30
2018-06-10T12:24:02.395Z,25.80
2018-06-10T12:27:56.419Z,25.90
2018-06-10T12:31:50.465Z,26.20
2018-06-10T12:35:44.435Z,26.40
2018-06-10T12:39:38.512Z,26.70
2018-06-10T12:43:34.980Z,27.10
2018-06-10T12:47:29.874Z,26.70
2018-06-10T12:51:23.931Z,26.70
2018-06-10T12:55:18.285Z,27.00
2018-06-10T12:59:12.279Z,27.30
2018-06-10T13:03:06.434Z,27.30
2018-06-10T13:07:00.564Z,26.60
2018-06-10T13:10:55.174Z,26.40
2018-06-10T13:14:49.153Z,26.00
2018-06-10T13:18:44.081Z,26.40
2018-06-10T13:22:37.938Z,26.50
2018-06-10T13:26:32.007Z,26.90
2018-06-10T13:30:26.067Z,26.80
2018-06-10T13:34:20.203Z,26.80
2018-06-10T13:38:14.650Z,26.40
2018-06-10T13:42:09.311Z,26.50
2018-06-10T13:46:03.500Z,26.30
2018-06-10T13:49:57.635Z,26.20
2018-06-10T13:53:52.530Z,26.20
2018-06-10T13:57:46.685Z,26.30
2018-06-10T14:01:40.744Z,26.20
2018-06-10T14:05:35.109Z,25.90
2018-06-10T14:09:29.443Z,26.20
2018-06-10T14:13:23.544Z,26.90
2018-06-10T14:17:17.575Z,27.40
2018-06-10T14:21:11.104Z,27.00
2018-06-10T14:25:06.372Z,26.10
2018-06-10T14:29:01.684Z,26.10
2018-06-10T14:32:55.707Z,26.30
2018-06-10T14:36:49.805Z,26.50
2018-06-10T14:40:44.353Z,26.10
2018-06-10T14:48:32.280Z,26.00
2018-06-10T14:52:26.979Z,26.00
2018-06-10T14:56:21.015Z,26.30
2018-06-10T15:00:15.017Z,26.50
2018-06-10T15:04:09.142Z,26.20
2018-06-10T15:08:03.121Z,26.20
2018-06-10T15:11:57.288Z,25.80
2018-06-10T15:15:51.388Z,25.90
2018-06-10T15:19:45.534Z,25.80
2018-06-10T15:23:38.976Z,26.00
2018-06-10T15:27:33.052Z,26.00
2018-06-10T15:31:28.120Z,26.10
2018-06-10T15:35:23.355Z,27.00
2018-06-10T15:39:18.060Z,27.10
2018-06-10T15:43:12.044Z,27.00
2018-06-10T15:47:06.069Z,27.10
2018-06-10T15:51:00.222Z,26.80
2018-06-10T15:54:54.192Z,26.60
2018-06-10T15:58:48.558Z,26.80
2018-06-10T16:02:42.758Z,26.50
2018-06-10T16:06:36.707Z,26.40
2018-06-10T16:10:31.257Z,26.60
2018-06-10T16:14:25.375Z,26.70
2018-06-10T16:18:20.100Z,26.50
2018-06-10T16:22:13.541Z,26.80
2018-06-10T16:26:07.700Z,27.10
2018-06-10T16:30:01.703Z,27.10
2018-06-10T16:33:55.779Z,27.00
2018-06-10T16:37:49.792Z,27.00
2018-06-10T16:41:44.004Z,26.70
2018-06-10T16:45:38.024Z,26.30
2018-06-10T16:49:32.192Z,26.10
2018-06-10T16:53:26.253Z,26.00
2018-06-10T16:57:20.331Z,25.90
2018-06-10T17:01:14.405Z,25.90
2018-06-10T17:05:08.577Z,25.90
2018-06-10T17:09:03.444Z,25.70
2018-06-10T17:12:58.607Z,25.60
2018-06-10T17:16:52.748Z,25.90
2018-06-10T17:20:46.965Z,25.70
2018-06-10T17:24:40.398Z,25.40
2018-06-10T17:28:34.415Z,25.30
2018-06-10T17:32:28.549Z,25.30
2018-06-10T17:36:22.936Z,25.20
2018-06-10T17:40:17.533Z,25.20
2018-06-10T17:44:11.742Z,25.40
2018-06-10T17:48:05.851Z,25.50
2018-06-10T17:51:59.884Z,25.60
2018-06-10T17:55:54.035Z,25.60
2018-06-10T17:59:48.104Z,25.50
2018-06-10T18:03:42.092Z,25.50
2018-06-10T18:07:36.114Z,25.50
2018-06-10T18:11:31.388Z,25.40
2018-06-10T18:15:25.490Z,25.20
2018-06-10T18:19:19.518Z,25.00
2018-06-10T18:23:13.102Z,24.90
2018-06-10T18:27:07.138Z,24.70
2018-06-10T18:31:01.209Z,24.60
2018-06-10T18:34:55.225Z,24.40
2018-06-10T18:38:49.264Z,24.40
2018-06-10T18:42:43.585Z,24.40
2018-06-10T18:46:37.777Z,24.30
2018-06-10T18:50:31.921Z,24.20
2018-06-10T18:54:26.064Z,24.10
2018-06-10T18:58:20.076Z,24.20
2018-06-10T19:02:14.223Z,24.20
2018-06-10T19:06:08.476Z,24.00
2018-06-10T19:10:02.632Z,23.80
2018-06-10T19:13:56.984Z,23.70
2018-06-10T19:17:49.958Z,23.60
2018-06-10T19:21:43.697Z,23.50
2018-06-10T19:25:37.784Z,23.40
2018-06-10T19:29:31.887Z,23.40
2018-06-10T19:33:25.939Z,23.30
2018-06-10T19:37:20.094Z,23.20
2018-06-10T19:41:14.437Z,23.10
2018-06-10T19:45:08.499Z,23.10
2018-06-10T19:49:02.545Z,23.00
2018-06-10T19:52:57.109Z,23.00
2018-06-10T20:00:46.259Z,22.80
2018-06-10T20:04:43.135Z,22.70
2018-06-10T20:08:37.127Z,22.70
2018-06-10T20:12:31.792Z,22.70
2018-06-10T20:16:25.894Z,22.70
2018-06-10T20:20:20.180Z,22.60
2018-06-10T20:24:15.778Z,22.50
2018-06-10T20:28:10.107Z,22.50
2018-06-10T20:32:04.218Z,22.40
2018-06-10T20:36:03.981Z,22.30
2018-06-10T20:40:03.327Z,22.30
2018-06-10T20:47:51.141Z,22.00
2018-06-10T20:51:45.216Z,22.10
2018-06-10T20:55:39.261Z,21.90
2018-06-10T20:59:33.492Z,21.70
2018-06-10T21:03:28.036Z,21.70
2018-06-10T21:07:22.070Z,21.50
2018-06-10T21:11:18.620Z,21.50
2018-06-10T21:15:13.246Z,21.50
2018-06-10T21:19:08.310Z,21.50
2018-06-10T21:23:02.815Z,21.40
2018-06-10T21:26:56.885Z,21.40
2018-06-10T21:30:52.779Z,21.20
2018-06-10T21:34:47.636Z,21.10
2018-06-10T21:38:42.195Z,21.10
2018-06-10T21:42:37.211Z,21.00
2018-06-10T21:46:31.266Z,20.90
2018-06-10T21:50:25.385Z,20.80
2018-06-10T21:54:19.399Z,20.60
2018-06-10T21:58:13.436Z,20.60
2018-06-10T22:06:01.256Z,20.30
2018-06-10T22:09:55.332Z,20.10
2018-06-10T22:13:49.489Z,20.10
2018-06-10T22:17:45.229Z,20.00
2018-06-10T22:21:39.183Z,19.90
2018-06-10T22:25:32.727Z,19.90
2018-06-10T22:29:26.803Z,19.80
2018-06-10T22:33:21.283Z,19.70
2018-06-10T22:37:15.371Z,19.70
2018-06-10T22:41:09.812Z,19.60
2018-06-10T22:45:03.988Z,19.60
2018-06-10T22:48:59.191Z,19.50
2018-06-10T22:55:02.550Z,19.40
2018-06-10T22:58:56.979Z,19.30
2018-06-10T23:02:51.574Z,19.30
2018-06-10T23:06:45.636Z,19.20
2018-06-10T23:10:39.629Z,19.20
2018-06-10T23:14:33.887Z,19.20
2018-06-10T23:18:27.896Z,19.10
2018-06-10T23:22:21.397Z,19.10
2018-06-10T23:26:15.611Z,19.10
2018-06-10T23:30:09.601Z,19.00
2018-06-10T23:34:03.649Z,18.90
2018-06-10T23:37:57.868Z,18.90
2018-06-10T23:41:51.902Z,19.00
2018-06-10T23:45:45.863Z,18.90
2018-06-10T23:49:39.990Z,18.90
2018-06-10T23:53:34.145Z,18.80
2018-06-10T23:57:28.287Z,18.70
